Time;durP1;ratioP1;P1;durP2;ratioP2;P2;SDS_P1;SDS_P2;PMS_P1;PMS_P2;Temp;Humidity;BMP_temperature;BMP_pressure;BME280_temperature;BME280_humidity;BME280_pressure;Samples;Min_cycle;Max_cycle;Signal;HPM_P1;HPM_P2
2022/06/08 00:00:56;;;;;;;8.55;3.97;;;;;;;;;;5111335;27;20451;-64
2022/06/08 00:03:48;;;;;;;7.82;4.28;;;;;;;;;;5111529;28;20020;-65
2022/06/08 00:10:40;;;;;;;9.80;4.72;;;;;;;;;;5111587;27;20393;-63
2022/06/08 00:13:21;;;;;;;8.88;5.05;;;;;;;;;;5112020;27;20450;-63
2022/06/08 00:15:47;;;;;;;7.32;5.03;;;;;;;;;;5110869;28;20508;-63
2022/06/08 00:18:14;;;;;;;8.25;5.13;;;;;;;;;;5111228;28;20024;-66
2022/06/08 00:20:40;;;;;;;8.75;5.00;;;;;;;;;;5111172;28;20027;-64
2022/06/08 00:24:19;;;;;;;9.18;4.80;;;;;;;;;;5112037;27;20893;-64
2022/06/08 00:28:53;;;;;;;8.60;5.05;;;;;;;;;;5111336;27;20581;-64
2022/06/08 00:31:20;;;;;;;7.60;4.95;;;;;;;;;;5111257;28;20027;-65
2022/06/08 00:35:17;;;;;;;7.43;4.93;;;;;;;;;;5111191;27;20434;-66
2022/06/08 00:37:43;;;;;;;7.90;5.45;;;;;;;;;;5109987;28;20038;-64
2022/06/08 00:40:10;;;;;;;8.07;5.40;;;;;;;;;;5111200;28;20023;-64
2022/06/08 00:42:54;;;;;;;9.00;5.15;;;;;;;;;;5111399;27;20418;-66
2022/06/08 00:49:02;;;;;;;9.48;5.50;;;;;;;;;;5070691;28;20879;-63
2022/06/08 00:52:54;;;;;;;7.20;4.88;;;;;;;;;;5071033;28;20395;-64
2022/06/08 00:56:51;;;;;;;8.90;5.60;;;;;;;;;;5110905;27;20461;-64
2022/06/08 00:59:17;;;;;;;8.32;5.10;;;;;;;;;;5111425;28;20106;-64
2022/06/08 01:04:08;;;;;;;8.38;5.00;;;;;;;;;;5111321;27;20774;-64
2022/06/08 01:06:34;;;;;;;10.68;5.18;;;;;;;;;;5111193;28;20032;-64
2022/06/08 01:12:12;;;;;;;9.60;5.65;;;;;;;;;;5110936;27;20445;-64
2022/06/08 01:16:31;;;;;;;7.13;5.00;;;;;;;;;;5111835;27;20803;-64
2022/06/08 01:18:58;;;;;;;8.05;5.03;;;;;;;;;;5110833;28;20055;-64
2022/06/08 01:21:27;;;;;;;9.18;5.32;;;;;;;;;;5109967;28;20028;-66
2022/06/08 01:25:56;;;;;;;7.22;4.85;;;;;;;;;;5111173;27;20392;-64
2022/06/08 01:28:36;;;;;;;8.18;5.35;;;;;;;;;;5111342;28;20027;-64
2022/06/08 01:33:02;;;;;;;7.38;4.72;;;;;;;;;;5110935;27;20846;-64
2022/06/08 01:37:27;;;;;;;8.05;5.00;;;;;;;;;;5111948;27;20388;-66
2022/06/08 01:40:11;;;;;;;9.25;4.35;;;;;;;;;;5110820;28;20099;-65
2022/06/08 01:55:29;;;;;;;8.02;4.93;;;;;;;;;;5173670;27;20110;-63
2022/06/08 01:58:15;;;;;;;9.18;6.05;;;;;;;;;;5152413;27;20023;-63
2022/06/08 02:00:47;;;;;;;9.63;5.85;;;;;;;;;;5151998;27;20019;-64
2022/06/08 02:05:00;;;;;;;8.30;5.50;;;;;;;;;;5111640;27;20423;-64
2022/06/08 02:07:31;;;;;;;9.98;5.22;;;;;;;;;;5111017;28;20027;-64
2022/06/08 02:11:29;;;;;;;8.30;5.20;;;;;;;;;;5111494;27;20388;-64
2022/06/08 02:13:55;;;;;;;9.05;5.97;;;;;;;;;;5111002;28;20027;-63
2022/06/08 02:16:24;;;;;;;8.75;6.07;;;;;;;;;;5111193;28;20024;-63
2022/06/08 02:18:56;;;;;;;7.90;5.80;;;;;;;;;;5111139;28;20043;-64
2022/06/08 02:22:59;;;;;;;8.93;6.07;;;;;;;;;;5111646;27;20389;-63
2022/06/08 02:27:09;;;;;;;8.95;6.07;;;;;;;;;;5111461;27;20426;-66
2022/06/08 02:31:00;;;;;;;8.85;6.10;;;;;;;;;;5112035;27;20562;-63
2022/06/08 02:36:20;;;;;;;9.73;5.70;;;;;;;;;;5110863;28;20039;-64
2022/06/08 02:38:50;;;;;;;9.73;6.03;;;;;;;;;;5111185;28;20016;-64
2022/06/08 02:41:18;;;;;;;8.40;5.47;;;;;;;;;;5111141;28;20427;-63
2022/06/08 02:43:48;;;;;;;8.40;5.57;;;;;;;;;;5110715;28;20023;-63
2022/06/08 02:47:31;;;;;;;8.20;5.82;;;;;;;;;;5111711;27;20419;-64
2022/06/08 02:52:27;;;;;;;11.15;5.85;;;;;;;;;;5111833;27;20577;-64
2022/06/08 02:54:53;;;;;;;10.88;6.35;;;;;;;;;;5111566;28;20028;-64
2022/06/08 02:57:24;;;;;;;9.57;6.68;;;;;;;;;;5110860;28;20047;-64
2022/06/08 02:59:59;;;;;;;9.20;5.22;;;;;;;;;;5109896;28;20016;-64
2022/06/08 03:03:42;;;;;;;8.90;6.38;;;;;;;;;;5111404;27;20393;-63
2022/06/08 03:07:57;;;;;;;10.40;6.60;;;;;;;;;;5111755;27;20400;-64
2022/06/08 03:10:25;;;;;;;9.65;6.75;;;;;;;;;;5110891;28;20035;-64
2022/06/08 03:12:54;;;;;;;8.90;6.15;;;;;;;;;;5111255;28;20549;-66
2022/06/08 03:15:24;;;;;;;8.52;6.18;;;;;;;;;;5111197;28;20032;-64
2022/06/08 03:17:50;;;;;;;10.50;6.35;;;;;;;;;;5109508;28;20032;-64
2022/06/08 03:20:18;;;;;;;9.48;6.60;;;;;;;;;;5111163;28;20050;-64
2022/06/08 03:22:44;;;;;;;10.68;6.60;;;;;;;;;;5111055;28;20020;-64
2022/06/08 03:28:13;;;;;;;9.65;5.97;;;;;;;;;;5111673;27;20422;-64
2022/06/08 03:30:40;;;;;;;9.63;6.82;;;;;;;;;;5111553;28;20027;-64
2022/06/08 03:33:06;;;;;;;8.77;6.18;;;;;;;;;;5110826;28;20023;-64
2022/06/08 03:38:13;;;;;;;10.88;6.47;;;;;;;;;;5111260;27;20392;-66
2022/06/08 03:40:39;;;;;;;11.55;7.90;;;;;;;;;;5111538;28;20028;-64
2022/06/08 03:44:14;;;;;;;8.70;6.60;;;;;;;;;;5111653;27;20795;-64
2022/06/08 03:51:34;;;;;;;10.15;5.90;;;;;;;;;;5112109;27;20418;-64
2022/06/08 03:55:35;;;;;;;8.45;5.43;;;;;;;;;;5111912;27;20389;-64
2022/06/08 03:58:01;;;;;;;9.43;6.88;;;;;;;;;;5111317;28;20024;-64
2022/06/08 04:01:20;;;;;;;9.98;6.05;;;;;;;;;;5070833;28;20421;-65
2022/06/08 04:03:50;;;;;;;9.38;5.75;;;;;;;;;;5070969;28;20028;-66
2022/06/08 04:09:12;;;;;;;9.68;6.40;;;;;;;;;;5111395;27;20393;-65
2022/06/08 04:11:38;;;;;;;9.23;6.30;;;;;;;;;;5111339;28;20028;-65
2022/06/08 04:15:56;;;;;;;9.50;6.75;;;;;;;;;;5173945;27;20120;-64
2022/06/08 04:18:48;;;;;;;8.73;6.22;;;;;;;;;;5111437;27;20980;-64
2022/06/08 04:21:15;;;;;;;10.32;7.22;;;;;;;;;;5110932;28;20384;-66
2022/06/08 04:23:57;;;;;;;11.07;6.95;;;;;;;;;;5111455;27;20981;-64
2022/06/08 04:26:24;;;;;;;10.55;6.80;;;;;;;;;;5111341;28;20061;-64
2022/06/08 04:29:14;;;;;;;8.25;5.45;;;;;;;;;;5110882;27;20426;-64
2022/06/08 04:32:16;;;;;;;11.02;6.43;;;;;;;;;;5111578;27;20393;-63
2022/06/08 04:34:43;;;;;;;10.25;6.28;;;;;;;;;;5110841;28;20038;-67
2022/06/08 04:39:11;;;;;;;12.27;8.50;;;;;;;;;;5111366;27;20424;-67
2022/06/08 04:41:38;;;;;;;9.93;7.15;;;;;;;;;;5126664;28;20040;-67
2022/06/08 04:49:00;;;;;;;9.90;7.05;;;;;;;;;;5111480;27;20413;-66
2022/06/08 04:51:27;;;;;;;9.95;7.30;;;;;;;;;;5111235;28;20020;-66
2022/06/08 04:53:53;;;;;;;11.02;7.32;;;;;;;;;;5111084;28;20024;-67
2022/06/08 04:57:04;;;;;;;12.77;8.32;;;;;;;;;;5111075;27;20420;-67
2022/06/08 04:59:30;;;;;;;13.70;9.20;;;;;;;;;;5111555;28;20424;-66
2022/06/08 05:05:45;;;;;;;12.70;9.80;;;;;;;;;;5070796;28;20465;-67
2022/06/08 05:08:11;;;;;;;13.30;9.85;;;;;;;;;;5066807;28;20668;-66
2022/06/08 05:10:38;;;;;;;12.85;9.68;;;;;;;;;;5064905;28;20071;-63
2022/06/08 05:13:06;;;;;;;12.57;9.10;;;;;;;;;;5069676;28;20025;-63
2022/06/08 05:15:34;;;;;;;12.32;9.52;;;;;;;;;;5068053;28;20029;-63
2022/06/08 05:18:00;;;;;;;12.98;8.40;;;;;;;;;;5068130;28;20095;-63
2022/06/08 05:20:27;;;;;;;12.38;8.32;;;;;;;;;;5068965;28;20475;-63
2022/06/08 05:22:54;;;;;;;16.08;9.15;;;;;;;;;;5069856;28;20031;-63
2022/06/08 05:25:25;;;;;;;14.85;9.00;;;;;;;;;;5069025;28;20112;-62
2022/06/08 05:27:51;;;;;;;10.38;7.13;;;;;;;;;;5069725;28;20017;-62
2022/06/08 05:30:17;;;;;;;13.43;8.18;;;;;;;;;;5069946;28;20025;-63
2022/06/08 05:33:20;;;;;;;12.57;7.50;;;;;;;;;;5172648;27;20114;-63
2022/06/08 05:42:30;;;;;;;12.13;7.53;;;;;;;;;;5109246;27;20785;-63
2022/06/08 05:44:57;;;;;;;12.80;8.23;;;;;;;;;;5109741;28;20028;-63
2022/06/08 05:47:23;;;;;;;10.70;7.15;;;;;;;;;;5108744;28;20386;-63
2022/06/08 05:49:49;;;;;;;14.50;8.48;;;;;;;;;;5110566;28;20474;-63
2022/06/08 05:52:17;;;;;;;16.95;9.10;;;;;;;;;;5109985;28;20495;-63
2022/06/08 05:55:22;;;;;;;13.60;9.02;;;;;;;;;;5110855;27;20973;-64
2022/06/08 05:57:51;;;;;;;13.88;9.18;;;;;;;;;;5110602;28;20514;-62
2022/06/08 06:00:19;;;;;;;15.15;8.40;;;;;;;;;;5113503;28;20024;-63
2022/06/08 06:05:48;;;;;;;13.25;8.18;;;;;;;;;;5090287;27;20409;-65
2022/06/08 06:08:15;;;;;;;19.08;13.10;;;;;;;;;;5090398;28;20020;-63
2022/06/08 06:10:43;;;;;;;13.43;9.05;;;;;;;;;;5088809;28;20157;-63
2022/06/08 06:14:19;;;;;;;13.45;7.88;;;;;;;;;;5109932;27;20473;-65
2022/06/08 06:18:04;;;;;;;12.32;7.70;;;;;;;;;;5107171;27;20457;-65
2022/06/08 06:20:31;;;;;;;11.05;7.55;;;;;;;;;;5088888;28;20028;-64
2022/06/08 06:22:57;;;;;;;11.48;6.78;;;;;;;;;;5069908;28;20024;-65
2022/06/08 06:25:24;;;;;;;13.70;8.18;;;;;;;;;;5084224;28;20024;-64
2022/06/08 06:29:21;;;;;;;12.43;7.50;;;;;;;;;;5062947;28;20454;-64
2022/06/08 06:31:59;;;;;;;11.70;7.90;;;;;;;;;;5064999;28;20062;-64
2022/06/08 06:37:08;;;;;;;14.02;8.98;;;;;;;;;;5014914;28;20445;-64
2022/06/08 06:41:21;;;;;;;9.93;6.45;;;;;;;;;;5098429;27;20120;-64
2022/06/08 06:45:21;;;;;;;14.40;7.43;;;;;;;;;;5099109;27;20116;-64
2022/06/08 06:47:47;;;;;;;12.98;8.23;;;;;;;;;;5099867;28;20354;-64
2022/06/08 06:50:15;;;;;;;10.85;7.90;;;;;;;;;;5095749;28;20028;-65
2022/06/08 06:56:38;;;;;;;;;;;;;;;;;;5108212;27;19916;-64
2022/06/08 07:00:51;;;;;;;207.30;185.90;;;;;;;;;;5109675;27;20400;-64
2022/06/08 07:03:17;;;;;;;;;;;;;;;;;;5108998;28;20069;-64
2022/06/08 07:07:21;;;;;;;161.55;147.98;;;;;;;;;;5106851;27;20410;-65
2022/06/08 07:09:47;;;;;;;;;;;;;;;;;;5107156;28;20034;-64
2022/06/08 07:12:13;;;;;;;;;;;;;;;;;;5107528;28;19959;-64
2022/06/08 07:14:39;;;;;;;;;;;;;;;;;;5104519;28;19947;-64
2022/06/08 07:17:05;;;;;;;;;;;;;;;;;;5105945;28;19961;-64
2022/06/08 07:19:31;;;;;;;176.63;160.93;;;;;;;;;;5100999;28;21010;-64
2022/06/08 07:23:41;;;;;;;;;;;;;;;;;;5106821;27;20458;-62
2022/06/08 07:26:10;;;;;;;;;;;;;;;;;;5102752;28;19931;-63
2022/06/08 07:28:36;;;;;;;;;;;;;;;;;;5086041;28;20351;-63
2022/06/08 07:31:02;;;;;;;;;;;;;;;;;;5087356;28;19908;-62
2022/06/08 07:34:12;;;;;;;;;;;;;;;;;;5087978;27;19919;-61
2022/06/08 07:36:38;;;;;;;;;;;;;;;;;;5086528;28;19912;-63
2022/06/08 07:39:04;;;;;;;169.68;155.23;;;;;;;;;;5088447;28;20774;-64
2022/06/08 07:44:22;;;;;;;;;;;;;;;;;;5101176;27;19912;-63
2022/06/08 07:46:48;;;;;;;;;;;;;;;;;;5087333;28;20384;-63
2022/06/08 07:56:55;;;;;;;143.50;133.20;;;;;;;;;;5069490;28;20457;-66
2022/06/08 07:59:41;;;;;;;;;;;;;;;;;;5095874;27;20423;-65
2022/06/08 08:06:11;;;;;;;;;;;;;;;;;;5110348;27;20991;-64
2022/06/08 08:08:38;;;;;;;;;;;;;;;;;;5109564;28;19995;-64
2022/06/08 08:11:04;;;;;;;;;;;;;;;;;;5110653;28;19994;-64
2022/06/08 08:13:30;;;;;;;;;;;;;;;;;;5109858;28;19943;-65
2022/06/08 08:16:17;;;;;;;;;;;;;;;;;;5121129;27;20119;-64
2022/06/08 08:20:08;;;;;;;;;;;;;;;;;;5099546;27;19916;-64
2022/06/08 08:22:34;;;;;;;;;;;;;;;;;;5104064;28;20380;-66
2022/06/08 08:25:00;;;;;;;;;;;;;;;;;;5089777;28;19962;-64
2022/06/08 08:30:28;;;;;;;;;;;;;;;;;;5171807;27;20290;-64
2022/06/08 08:34:47;;;;;;;;;;;;;;;;;;5109217;27;20309;-68
2022/06/08 08:37:54;;;;;;;;;;;;;;;;;;5172018;27;19921;-70
2022/06/08 08:40:20;;;;;;;;;;;;;;;;;;5171472;27;19911;-69
2022/06/08 08:42:46;;;;;;;;;;;;;;;;;;5172600;27;19953;-69
2022/06/08 08:45:12;;;;;;;;;;;;;;;;;;5153790;27;19948;-69
2022/06/08 08:47:38;;;;;;;;;;;;;;;;;;5151206;27;19915;-70
2022/06/08 08:51:55;;;;;;;;;;;;;;;;;;5090236;28;19921;-68
2022/06/08 08:54:22;;;;;;;;;;;;;;;;;;5089698;28;19999;-69
2022/06/08 08:56:48;;;;;;;;;;;;;;;;;;5089628;28;19909;-69
2022/06/08 08:59:14;;;;;;;;;;;;;;;;;;5089202;28;19915;-68
2022/06/08 09:01:40;;;;;;;;;;;;;;;;;;5088348;28;20884;-68
2022/06/08 09:04:06;;;;;;;;;;;;;;;;;;5088870;28;19936;-70
2022/06/08 09:06:32;;;;;;;;;;;;;;;;;;5086620;28;19947;-72
2022/06/08 09:09:00;;;;;;;;;;;;;;;;;;5088200;28;20634;-71
2022/06/08 09:11:26;;;;;;;;;;;;;;;;;;5105450;28;19920;-67
2022/06/08 09:13:52;;;;;;;;;;;;;;;;;;5108276;28;19962;-66
2022/06/08 09:16:18;;;;;;;;;;;;;;;;;;5108245;28;20364;-67
2022/06/08 09:18:44;;;;;;;;;;;;;;;;;;5107765;28;19908;-66
2022/06/08 09:21:10;;;;;;;;;;;;;;;;;;5108607;28;20372;-66
2022/06/08 09:23:37;;;;;;;;;;;;;;;;;;5109880;28;19912;-65
2022/06/08 09:26:03;;;;;;;;;;;;;;;;;;5101594;28;19924;-68
2022/06/08 09:28:29;;;;;;;;;;;;;;;;;;5088168;28;19935;-66
2022/06/08 09:30:55;;;;;;;;;;;;;;;;;;5088375;28;20405;-67
2022/06/08 09:33:21;;;;;;;;;;;;;;;;;;5084976;28;19908;-67
2022/06/08 09:35:46;;;;;;;;;;;;;;;;;;5088167;28;19931;-66
2022/06/08 09:38:12;;;;;;;;;;;;;;;;;;5087206;28;19909;-66
2022/06/08 09:40:39;;;;;;;;;;;;;;;;;;5087027;28;19913;-66
2022/06/08 09:44:44;;;;;;;;;;;;;;;;;;5086057;27;19938;-66
2022/06/08 09:52:40;;;;;;;;;;;;;;;;;;5085938;28;19915;-66
2022/06/08 09:55:08;;;;;;;;;;;;;;;;;;5087370;28;20605;-66
2022/06/08 09:57:34;;;;;;;;;;;;;;;;;;5087781;28;19912;-66
2022/06/08 10:00:09;;;;;;;6.10;3.75;;;;;;;;;;5086281;28;20361;-66
2022/06/08 10:02:55;;;;;;;6.80;4.07;;;;;;;;;;5088434;28;20044;-66
2022/06/08 10:05:24;;;;;;;7.60;3.65;;;;;;;;;;5088839;28;20059;-66
2022/06/08 10:08:12;;;;;;;5.85;3.60;;;;;;;;;;5089300;28;20099;-66
2022/06/08 10:10:45;;;;;;;4.00;2.72;;;;;;;;;;5088861;28;20362;-66
2022/06/08 10:13:16;;;;;;;3.88;2.58;;;;;;;;;;5087915;28;20031;-67
2022/06/08 10:15:42;;;;;;;4.28;2.53;;;;;;;;;;5089139;28;20031;-65
2022/06/08 10:18:15;;;;;;;5.80;3.03;;;;;;;;;;5096417;28;20141;-67
2022/06/08 10:21:01;;;;;;;6.40;3.10;;;;;;;;;;5108597;28;20028;-67
2022/06/08 10:23:31;;;;;;;5.75;3.15;;;;;;;;;;5104753;28;20032;-67
2022/06/08 10:26:02;;;;;;;4.72;2.50;;;;;;;;;;5087911;28;20056;-66
2022/06/08 10:28:33;;;;;;;4.68;2.58;;;;;;;;;;5090301;28;20644;-67
2022/06/08 10:31:06;;;;;;;4.43;2.75;;;;;;;;;;5107659;28;20031;-66
2022/06/08 10:33:35;;;;;;;7.15;4.07;;;;;;;;;;5100731;28;20043;-62
2022/06/08 10:37:37;;;;;;;10.75;5.40;;;;;;;;;;5069418;28;20391;-63
2022/06/08 10:40:08;;;;;;;6.43;3.38;;;;;;;;;;5067346;28;20083;-62
2022/06/08 10:44:35;;;;;;;9.10;4.40;;;;;;;;;;5109814;27;20389;-63
2022/06/08 10:47:09;;;;;;;10.38;4.90;;;;;;;;;;5108495;28;20479;-63
2022/06/08 10:49:35;;;;;;;9.07;4.78;;;;;;;;;;5112363;28;20025;-63
2022/06/08 10:52:28;;;;;;;9.70;4.90;;;;;;;;;;5110278;28;20379;-63
2022/06/08 10:54:55;;;;;;;8.38;4.38;;;;;;;;;;5108067;28;20065;-64
2022/06/08 10:57:51;;;;;;;6.07;3.10;;;;;;;;;;5108461;28;20117;-64
2022/06/08 11:00:23;;;;;;;4.65;2.97;;;;;;;;;;5105768;28;20031;-64
2022/06/08 11:02:51;;;;;;;6.20;3.40;;;;;;;;;;5105148;27;20122;-62
2022/06/08 11:05:20;;;;;;;5.13;3.45;;;;;;;;;;5106386;28;20028;-64
2022/06/08 11:08:02;;;;;;;6.32;3.47;;;;;;;;;;5110402;28;20045;-64
2022/06/08 11:10:53;;;;;;;4.75;3.05;;;;;;;;;;5109411;28;20028;-63
2022/06/08 11:13:53;;;;;;;6.20;3.55;;;;;;;;;;5110135;27;20396;-63
2022/06/08 11:16:27;;;;;;;7.65;4.28;;;;;;;;;;5109426;28;20036;-65
2022/06/08 11:19:00;;;;;;;4.95;3.28;;;;;;;;;;5109642;28;20027;-68
2022/06/08 11:21:26;;;;;;;;;;;;;;;;;;5110407;28;20375;-67
2022/06/08 11:23:57;;;;;;;5.30;3.70;;;;;;;;;;5108415;28;20372;-68
2022/06/08 11:26:28;;;;;;;4.85;3.13;;;;;;;;;;5109148;28;20091;-68
2022/06/08 11:29:39;;;;;;;5.75;3.10;;;;;;;;;;5106199;27;20442;-67
2022/06/08 11:32:06;;;;;;;5.68;3.42;;;;;;;;;;5110599;28;20028;-68
2022/06/08 11:34:47;;;;;;;7.90;3.97;;;;;;;;;;5109933;28;20035;-67
2022/06/08 11:37:14;;;;;;;5.83;3.50;;;;;;;;;;5109927;28;20028;-66
2022/06/08 11:39:58;;;;;;;4.03;2.97;;;;;;;;;;5109909;28;20268;-69
2022/06/08 11:42:29;;;;;;;5.93;2.90;;;;;;;;;;5106083;28;20016;-66
2022/06/08 11:44:55;;;;;;;5.32;3.00;;;;;;;;;;5086265;28;20608;-67
2022/06/08 11:47:26;;;;;;;5.63;3.28;;;;;;;;;;5092403;28;20488;-66
2022/06/08 11:50:12;;;;;;;6.03;3.50;;;;;;;;;;5106238;28;20028;-66
2022/06/08 11:52:40;;;;;;;5.38;3.58;;;;;;;;;;5107253;28;20024;-68
2022/06/08 11:55:17;;;;;;;4.97;3.17;;;;;;;;;;5106049;28;20026;-68
2022/06/08 11:57:46;;;;;;;5.90;3.03;;;;;;;;;;5105281;28;20024;-68
2022/06/08 12:00:24;;;;;;;5.25;3.22;;;;;;;;;;5106026;28;20016;-69
2022/06/08 12:02:55;;;;;;;4.95;3.50;;;;;;;;;;5106167;28;20020;-68
2022/06/08 12:05:23;;;;;;;5.75;3.63;;;;;;;;;;5105759;28;20545;-69
2022/06/08 12:08:01;;;;;;;4.38;2.70;;;;;;;;;;5108333;28;20027;-68
2022/06/08 12:10:29;;;;;;;7.05;3.30;;;;;;;;;;5109985;28;20206;-65
2022/06/08 12:12:58;;;;;;;7.15;3.72;;;;;;;;;;5109531;28;20024;-65
2022/06/08 12:15:25;;;;;;;5.75;3.47;;;;;;;;;;5109799;28;20484;-65
2022/06/08 12:17:51;;;;;;;4.97;3.17;;;;;;;;;;5109897;28;20027;-65
2022/06/08 12:20:35;;;;;;;5.20;3.40;;;;;;;;;;5108669;28;20122;-65
2022/06/08 12:23:01;;;;;;;5.40;3.35;;;;;;;;;;5110078;28;20024;-65
2022/06/08 12:25:28;;;;;;;7.05;3.80;;;;;;;;;;5107969;28;20610;-65
2022/06/08 12:28:14;;;;;;;4.93;3.40;;;;;;;;;;5109405;28;20096;-65
2022/06/08 12:30:49;;;;;;;5.57;3.58;;;;;;;;;;5109891;28;20109;-65
2022/06/08 12:33:19;;;;;;;5.47;3.65;;;;;;;;;;5109430;28;20443;-65
2022/06/08 12:35:56;;;;;;;7.32;3.53;;;;;;;;;;5109642;28;20023;-65
2022/06/08 12:39:30;;;;;;;4.95;3.25;;;;;;;;;;5069992;28;20391;-67
2022/06/08 12:43:20;;;;;;;4.68;3.00;;;;;;;;;;5110772;27;20388;-64
2022/06/08 12:46:03;;;;;;;7.10;4.30;;;;;;;;;;5110853;28;20035;-65
2022/06/08 12:48:39;;;;;;;9.77;5.40;;;;;;;;;;5110455;28;20422;-65
2022/06/08 12:51:34;;;;;;;7.07;4.00;;;;;;;;;;5110985;28;20020;-65
2022/06/08 12:54:01;;;;;;;6.82;4.55;;;;;;;;;;5088084;28;20384;-65
2022/06/08 12:56:28;;;;;;;10.18;4.65;;;;;;;;;;5110724;28;20502;-65
2022/06/08 12:58:55;;;;;;;6.65;4.07;;;;;;;;;;5110596;28;20028;-65
2022/06/08 13:01:22;;;;;;;6.30;4.28;;;;;;;;;;5109955;28;20062;-65
2022/06/08 13:03:49;;;;;;;7.20;4.53;;;;;;;;;;5110676;28;20031;-65
2022/06/08 13:06:15;;;;;;;8.88;5.90;;;;;;;;;;5110391;28;20028;-66
2022/06/08 13:08:42;;;;;;;7.05;4.50;;;;;;;;;;5109977;28;20024;-65
2022/06/08 13:11:13;;;;;;;7.57;4.50;;;;;;;;;;5109063;28;20024;-65
2022/06/08 13:13:40;;;;;;;7.00;4.47;;;;;;;;;;5110451;28;20148;-65
2022/06/08 13:16:23;;;;;;;6.93;4.68;;;;;;;;;;5109871;28;20095;-67
2022/06/08 13:18:50;;;;;;;8.20;5.25;;;;;;;;;;5110238;28;20035;-65
2022/06/08 13:21:17;;;;;;;11.05;5.88;;;;;;;;;;5110070;28;20089;-65
2022/06/08 13:23:43;;;;;;;6.55;4.22;;;;;;;;;;5109859;28;20023;-66
2022/06/08 13:26:19;;;;;;;7.32;4.40;;;;;;;;;;5110152;28;20035;-65
2022/06/08 13:28:45;;;;;;;5.95;4.65;;;;;;;;;;5109711;28;20380;-65
2022/06/08 13:31:12;;;;;;;7.50;5.18;;;;;;;;;;5110117;28;20093;-65
2022/06/08 13:34:24;;;;;;;6.35;4.47;;;;;;;;;;5111086;27;20843;-66
2022/06/08 13:37:16;;;;;;;8.63;4.43;;;;;;;;;;5110963;27;20385;-64
2022/06/08 13:39:42;;;;;;;8.48;4.78;;;;;;;;;;5110996;28;20020;-64
2022/06/08 13:42:12;;;;;;;9.43;4.47;;;;;;;;;;5110952;28;20062;-66
2022/06/08 13:44:47;;;;;;;8.10;5.00;;;;;;;;;;5109055;28;20023;-66
2022/06/08 13:47:13;;;;;;;6.60;4.20;;;;;;;;;;5110998;28;20487;-65
2022/06/08 13:49:43;;;;;;;6.80;4.55;;;;;;;;;;5110608;28;20417;-65
2022/06/08 13:52:12;;;;;;;7.82;4.32;;;;;;;;;;5110845;28;20020;-65
2022/06/08 13:54:41;;;;;;;8.13;4.25;;;;;;;;;;5110558;28;20505;-65
2022/06/08 13:57:09;;;;;;;6.63;4.15;;;;;;;;;;5110132;28;20035;-65
2022/06/08 13:59:36;;;;;;;7.55;4.47;;;;;;;;;;5110484;28;20020;-65
2022/06/08 14:02:04;;;;;;;7.28;4.55;;;;;;;;;;5110425;28;20023;-65
2022/06/08 14:04:32;;;;;;;8.43;4.68;;;;;;;;;;5110052;28;20024;-65
2022/06/08 14:15:14;;;;;;;9.05;4.88;;;;;;;;;;5110188;28;20119;-66
2022/06/08 14:17:43;;;;;;;10.90;6.15;;;;;;;;;;5110434;28;20024;-66
2022/06/08 14:20:12;;;;;;;8.40;5.22;;;;;;;;;;5109883;28;20020;-66
2022/06/08 14:23:48;;;;;;;5.68;3.78;;;;;;;;;;5111705;27;20865;-66
2022/06/08 14:28:03;;;;;;;6.28;4.18;;;;;;;;;;5111250;27;20397;-65
2022/06/08 14:30:29;;;;;;;11.05;4.80;;;;;;;;;;5110816;28;20028;-64
2022/06/08 14:32:57;;;;;;;10.43;4.82;;;;;;;;;;5110495;28;20357;-66
2022/06/08 14:35:52;;;;;;;6.97;4.15;;;;;;;;;;5111463;27;20109;-66
2022/06/08 14:38:23;;;;;;;6.85;3.92;;;;;;;;;;5110993;28;20442;-64
2022/06/08 14:40:49;;;;;;;7.18;4.10;;;;;;;;;;5110372;28;20047;-64
2022/06/08 14:43:17;;;;;;;7.63;4.40;;;;;;;;;;5110806;28;20050;-64
2022/06/08 14:47:39;;;;;;;7.85;4.72;;;;;;;;;;5110822;27;20388;-66
2022/06/08 14:52:13;;;;;;;7.72;4.75;;;;;;;;;;5111177;27;20113;-66
2022/06/08 14:54:40;;;;;;;6.80;5.07;;;;;;;;;;5110535;28;20047;-66
2022/06/08 14:57:06;;;;;;;8.02;4.78;;;;;;;;;;5110943;28;20051;-66
2022/06/08 14:59:34;;;;;;;7.40;5.18;;;;;;;;;;5111158;28;20019;-66
2022/06/08 15:02:04;;;;;;;6.63;4.35;;;;;;;;;;5110335;28;20082;-66
2022/06/08 15:05:39;;;;;;;6.78;3.58;;;;;;;;;;5111686;27;20443;-65
2022/06/08 15:08:06;;;;;;;5.97;3.38;;;;;;;;;;5110525;28;20031;-65
2022/06/08 15:11:57;;;;;;;5.90;3.58;;;;;;;;;;5110779;28;20050;-65
2022/06/08 15:13:18;;;;;;;3.83;2.20;;;;;;;;;;5110809;28;20073;-65
2022/06/08 15:19:39;;;;;;;5.35;2.53;;;;;;;;;;5111182;27;20791;-65
2022/06/08 15:22:06;;;;;;;11.52;4.68;;;;;;;;;;5109282;28;20448;-65
2022/06/08 15:24:52;;;;;;;5.53;2.58;;;;;;;;;;5111187;27;20411;-67
2022/06/08 15:27:20;;;;;;;6.00;2.65;;;;;;;;;;5111248;28;20023;-65
2022/06/08 15:29:47;;;;;;;5.05;2.60;;;;;;;;;;5110661;28;20138;-65
2022/06/08 15:32:15;;;;;;;5.68;3.05;;;;;;;;;;5110365;28;20028;-65
2022/06/08 15:34:41;;;;;;;5.50;2.67;;;;;;;;;;5110647;28;20085;-64
2022/06/08 15:37:14;;;;;;;5.72;2.70;;;;;;;;;;5108965;28;20541;-65
2022/06/08 15:39:40;;;;;;;5.88;2.35;;;;;;;;;;5109386;28;20164;-66
2022/06/08 15:42:06;;;;;;;4.88;1.80;;;;;;;;;;5110728;28;20423;-65
2022/06/08 15:44:33;;;;;;;3.95;2.17;;;;;;;;;;5110136;28;20035;-66
2022/06/08 15:47:01;;;;;;;5.20;2.05;;;;;;;;;;5110533;28;20024;-64
2022/06/08 15:49:29;;;;;;;6.07;2.88;;;;;;;;;;5110025;28;20051;-65
2022/06/08 15:52:00;;;;;;;3.13;1.80;;;;;;;;;;5110479;28;20024;-65
2022/06/08 15:54:28;;;;;;;5.18;1.98;;;;;;;;;;5110293;28;20165;-65
2022/06/08 15:56:59;;;;;;;3.13;1.60;;;;;;;;;;5109990;28;20125;-65
2022/06/08 15:59:44;;;;;;;2.80;1.60;;;;;;;;;;5108930;28;20048;-65
2022/06/08 16:02:10;;;;;;;4.47;1.85;;;;;;;;;;5110262;28;20146;-65
2022/06/08 16:04:37;;;;;;;4.10;1.80;;;;;;;;;;5109748;28;20081;-65
2022/06/08 16:07:05;;;;;;;4.38;2.13;;;;;;;;;;5110161;28;20024;-65
2022/06/08 16:09:31;;;;;;;4.30;2.03;;;;;;;;;;5110053;28;20031;-65
2022/06/08 16:13:42;;;;;;;4.25;2.00;;;;;;;;;;5070462;28;20417;-63
2022/06/08 16:16:08;;;;;;;5.40;1.80;;;;;;;;;;5070373;28;20079;-63
2022/06/08 16:20:02;;;;;;;4.47;2.28;;;;;;;;;;5110870;27;20388;-63
2022/06/08 16:22:28;;;;;;;6.25;3.58;;;;;;;;;;5126652;28;20111;-64
2022/06/08 16:24:54;;;;;;;4.65;2.75;;;;;;;;;;5110454;28;20028;-67
2022/06/08 16:27:21;;;;;;;5.10;2.65;;;;;;;;;;5110818;28;20535;-64
2022/06/08 16:31:23;;;;;;;8.63;2.88;;;;;;;;;;5152602;27;20390;-66
2022/06/08 16:33:49;;;;;;;5.28;2.63;;;;;;;;;;5151705;27;20067;-66
2022/06/08 16:36:16;;;;;;;6.68;2.83;;;;;;;;;;5152003;27;20378;-64
2022/06/08 16:38:43;;;;;;;5.80;2.58;;;;;;;;;;5151827;27;20021;-67
2022/06/08 16:41:09;;;;;;;4.50;2.30;;;;;;;;;;5151920;27;20019;-64
2022/06/08 16:43:35;;;;;;;5.07;2.47;;;;;;;;;;5152001;27;20044;-64
2022/06/08 16:46:03;;;;;;;5.53;2.60;;;;;;;;;;5151602;27;20068;-64
2022/06/08 16:48:33;;;;;;;5.30;2.60;;;;;;;;;;5151976;27;20075;-65
2022/06/08 16:51:00;;;;;;;3.67;2.28;;;;;;;;;;5152030;27;20027;-65
2022/06/08 16:53:27;;;;;;;4.10;2.60;;;;;;;;;;5151363;27;20019;-65
2022/06/08 16:55:53;;;;;;;3.72;2.40;;;;;;;;;;5151849;27;20421;-65
2022/06/08 17:01:16;;;;;;;5.15;2.78;;;;;;;;;;5110918;27;20565;-64
2022/06/08 17:04:49;;;;;;;3.45;2.47;;;;;;;;;;5110973;27;20384;-64
2022/06/08 17:07:52;;;;;;;5.65;2.80;;;;;;;;;;5110724;27;20400;-64
2022/06/08 17:12:25;;;;;;;6.10;2.97;;;;;;;;;;5051007;28;20397;-65
2022/06/08 17:14:52;;;;;;;3.88;2.38;;;;;;;;;;5049918;28;20502;-64
2022/06/08 17:17:20;;;;;;;3.58;2.60;;;;;;;;;;5050442;28;20021;-65
2022/06/08 17:19:47;;;;;;;4.13;2.63;;;;;;;;;;5050386;28;20099;-65
2022/06/08 17:22:13;;;;;;;4.45;2.78;;;;;;;;;;5049869;28;20029;-65
2022/06/08 17:26:23;;;;;;;4.53;2.65;;;;;;;;;;5172970;27;20225;-65
2022/06/08 17:28:50;;;;;;;4.30;2.55;;;;;;;;;;5133166;27;20026;-66
2022/06/08 17:31:16;;;;;;;4.32;2.10;;;;;;;;;;5152027;27;20356;-66
2022/06/08 17:33:43;;;;;;;6.63;1.98;;;;;;;;;;5152016;27;20027;-65
2022/06/08 17:36:09;;;;;;;3.38;1.80;;;;;;;;;;5151679;27;20031;-65
2022/06/08 17:38:36;;;;;;;3.72;1.60;;;;;;;;;;5151860;27;20094;-66
2022/06/08 17:41:02;;;;;;;4.47;1.88;;;;;;;;;;5151871;27;20018;-65
2022/06/08 17:43:29;;;;;;;4.38;1.70;;;;;;;;;;5151536;27;20098;-65
2022/06/08 17:45:55;;;;;;;7.40;2.90;;;;;;;;;;5151924;27;20027;-65
2022/06/08 17:50:18;;;;;;;3.25;1.60;;;;;;;;;;5090177;27;20394;-65
2022/06/08 17:52:46;;;;;;;3.17;1.90;;;;;;;;;;5090484;28;20026;-65
2022/06/08 17:56:03;;;;;;;4.90;2.10;;;;;;;;;;5109547;27;20414;-65
2022/06/08 17:58:29;;;;;;;2.90;1.70;;;;;;;;;;5110867;28;20053;-66
2022/06/08 18:00:56;;;;;;;3.53;1.98;;;;;;;;;;5110723;28;20038;-65
2022/06/08 18:04:11;;;;;;;4.03;1.92;;;;;;;;;;5110862;27;20388;-65
2022/06/08 18:12:54;;;;;;;5.68;2.15;;;;;;;;;;5111524;27;20937;-65
2022/06/08 18:15:21;;;;;;;2.78;1.30;;;;;;;;;;5110980;28;20020;-65
2022/06/08 18:17:47;;;;;;;3.25;1.50;;;;;;;;;;5110495;28;20058;-64
2022/06/08 18:20:34;;;;;;;4.57;1.70;;;;;;;;;;5110871;28;20334;-64
2022/06/08 18:23:00;;;;;;;4.65;1.80;;;;;;;;;;5110739;28;20099;-64
2022/06/08 18:25:27;;;;;;;3.00;1.63;;;;;;;;;;5110086;28;20119;-67
2022/06/08 18:27:56;;;;;;;5.05;1.98;;;;;;;;;;5110551;28;20050;-66
2022/06/08 18:30:58;;;;;;;4.93;1.90;;;;;;;;;;5110891;27;20389;-65
2022/06/08 18:33:25;;;;;;;4.35;2.08;;;;;;;;;;5110604;28;20472;-65